Terminal Aerodrome Forecast
Issued by NWS Lake Charles, LA

Home | Current Version | Previous Version | Text Only | Print | Product List | Glossary On
Versions: 1 2 3 4 5 6 7 8 9 10 11 12 13 14 15 16 17 18 19 20
000
FTUS44 KLCH 291733
TAFAEX
TAF
KAEX 291733Z 2918/3018 10004KT P6SM SCT035 SCT200
     FM300000 VRB03KT P6SM SCT200
     FM300800 00000KT 4SM BR SCT200
      TEMPO 3009/3013 1SM BR
     FM301400 VRB03KT P6SM SCT200=

USA.gov is the U.S. government's official web portal to all federal, state and local government web resources and services.